Terminal Aerodrome Forecast
Issued by NWS Jackson, MS

Home | Current Version | Previous Version | Text Only | Print | Product List | Glossary On
Versions: 1 2 3 4 5 6 7 8 9 10 11 12 13 14 15 16 17 18
000
FTUS44 KMEG 272330
TAFTUP
TAF
KTUP 272330Z 2800/2824 36011G18KT P6SM VCSH SCT050 BKN070
     FM280300 01006KT P6SM SKC
     FM281000 03004KT P6SM BKN100
     FM281700 05006KT P6SM VCSH BKN025 OVC050
     FM282300 08006KT P6SM SCT025 OVC050=

USA.gov is the U.S. government's official web portal to all federal, state and local government web resources and services.